Time;durP1;ratioP1;P1;durP2;ratioP2;P2;SDS_P1;SDS_P2;PMS_P1;PMS_P2;Temp;Humidity;BMP_temperature;BMP_pressure;BME280_temperature;BME280_humidity;BME280_pressure;Samples;Min_cycle;Max_cycle;Signal;HPM_P1;HPM_P2
2022/11/06 00:00:29;;;;;;;;;12.33;10.00;;;;;11.45;70.77;101356.22;5056940;28;47417;-46
2022/11/06 00:03:00;;;;;;;;;14.33;10.33;;;;;11.39;70.90;101322.16;5057154;28;45393;-53
2022/11/06 00:08:12;;;;;;;;;13.67;9.00;;;;;11.36;71.18;101317.09;5057075;28;45313;-48
2022/11/06 00:10:37;;;;;;;;;8.00;7.00;;;;;11.36;71.23;101308.25;5055956;28;47066;-44
2022/11/06 00:13:03;;;;;;;;;7.00;7.00;;;;;11.36;71.16;101308.25;5057135;28;45327;-52
2022/11/06 00:15:28;;;;;;;;;10.33;9.67;;;;;11.36;71.06;101300.28;5057341;28;45241;-56
2022/11/06 00:17:53;;;;;;;;;9.33;5.33;;;;;11.35;70.83;101301.25;5057406;28;45262;-56
2022/11/06 00:20:19;;;;;;;;;9.33;7.00;;;;;11.31;70.79;101310.50;5056921;28;46015;-51
2022/11/06 00:22:44;;;;;;;;;7.00;7.00;;;;;11.34;70.78;101328.88;5057066;28;45399;-50
2022/11/06 00:25:10;;;;;;;;;7.33;6.00;;;;;11.32;70.89;101325.50;5055720;28;45432;-46
2022/11/06 00:27:36;;;;;;;;;8.00;8.00;;;;;11.37;70.98;101334.75;5057819;28;45389;-46
2022/11/06 00:30:04;;;;;;;;;12.00;7.00;;;;;11.40;70.52;101320.31;5057383;28;45327;-56
2022/11/06 00:32:29;;;;;;;;;11.33;7.67;;;;;11.38;70.89;101315.16;5056820;28;45437;-45
2022/11/06 00:34:55;;;;;;;;;12.67;7.33;;;;;11.40;70.47;101330.97;5057015;28;45224;-53
2022/11/06 00:37:20;;;;;;;;;11.00;7.00;;;;;11.44;70.90;101330.56;5057127;28;45291;-53
2022/11/06 00:39:45;;;;;;;;;11.33;7.33;;;;;11.46;70.25;101338.41;5056705;28;46029;-55
2022/11/06 00:42:11;;;;;;;;;11.33;8.67;;;;;11.45;70.29;101318.09;5056707;28;45220;-56
2022/11/06 00:44:36;;;;;;;;;6.00;6.00;;;;;11.44;70.42;101319.06;5056956;28;45223;-53
2022/11/06 00:47:01;;;;;;;;;10.33;7.00;;;;;11.41;70.41;101322.00;5056717;28;45211;-56
2022/11/06 00:49:27;;;;;;;;;11.33;5.67;;;;;11.30;70.34;101306.16;5056563;28;46340;-54
2022/11/06 00:51:52;;;;;;;;;8.00;6.33;;;;;11.41;70.41;101308.69;5056580;28;45307;-54
2022/11/06 00:54:18;;;;;;;;;6.33;5.33;;;;;11.38;70.56;101307.16;5056681;28;45275;-53
2022/11/06 00:56:43;;;;;;;;;9.67;6.00;;;;;11.38;70.25;101307.16;5057028;28;45338;-53
2022/11/06 00:59:11;;;;;;;;;7.00;6.00;;;;;11.33;70.44;101285.41;5056601;28;45506;-56
2022/11/06 01:01:40;;;;;;;;;8.00;7.00;;;;;11.39;70.18;101294.66;5056442;28;45359;-56
2022/11/06 01:04:07;;;;;;;;;8.00;7.00;;;;;11.36;70.64;101286.94;5056670;28;45430;-55
2022/11/06 01:06:35;;;;;;;;;8.00;6.00;;;;;11.38;70.21;101291.16;5056880;28;45465;-56
2022/11/06 01:09:03;;;;;;;;;11.33;4.67;;;;;11.43;70.18;101296.91;5056614;28;45426;-42
2022/11/06 01:11:31;;;;;;;;;8.67;6.00;;;;;11.44;70.19;101292.44;5057853;28;45430;-48
2022/11/06 01:13:58;;;;;;;;;7.00;7.00;;;;;11.44;70.05;101292.44;5060434;28;45427;-52
2022/11/06 01:16:24;;;;;;;;;7.00;7.00;;;;;11.43;70.05;101286.25;5060313;28;45386;-53
2022/11/06 01:18:51;;;;;;;;;4.67;4.67;;;;;11.37;70.05;101256.66;5060067;28;45438;-55
2022/11/06 01:21:23;;;;;;;;;6.33;5.33;;;;;11.35;70.35;101234.66;5060052;28;45433;-49
2022/11/06 01:23:54;;;;;;;;;6.67;6.33;;;;;11.49;70.37;101263.53;5059670;28;45523;-45
2022/11/06 01:26:20;;;;;;;;;11.00;7.67;;;;;11.52;70.09;101262.44;5059949;28;45481;-55
2022/11/06 01:28:45;;;;;;;;;7.33;6.67;;;;;11.52;70.25;101270.44;5059562;28;45274;-51
2022/11/06 01:31:16;;;;;;;;;7.33;5.33;;;;;11.51;70.00;101266.94;5059435;28;45566;-48
2022/11/06 01:33:42;;;;;;;;;6.33;3.67;;;;;11.54;70.66;101276.44;5059637;28;45410;-55
2022/11/06 01:36:10;;;;;;;;;9.00;6.00;;;;;11.54;69.67;101269.28;5059548;28;45452;-49
2022/11/06 01:38:38;;;;;;;;;8.67;6.00;;;;;11.57;70.29;101266.34;5059194;28;47117;-50
2022/11/06 01:41:04;;;;;;;;;10.67;9.00;;;;;11.55;70.17;101268.31;5059365;28;45420;-54
2022/11/06 01:43:50;;;;;;;;;7.00;6.00;;;;;11.60;69.74;101265.25;5059483;28;45343;-45
2022/11/06 01:46:17;;;;;;;;;11.00;7.00;;;;;11.59;69.51;101268.88;5059284;28;45348;-51
2022/11/06 01:48:47;;;;;;;;;8.33;7.00;;;;;11.62;69.28;101269.44;5059289;28;45922;-55
2022/11/06 01:51:13;;;;;;;;;7.00;6.33;;;;;11.61;70.01;101258.91;5058543;27;45337;-48
2022/11/06 01:53:39;;;;;;;;;8.00;6.67;;;;;11.63;69.74;101262.28;5059394;28;45426;-42
2022/11/06 01:56:08;;;;;;;;;8.00;5.00;;;;;11.64;69.77;101262.16;5059575;28;45531;-55
2022/11/06 01:58:37;;;;;;;;;6.00;3.00;;;;;11.68;69.22;101254.72;5058762;28;46192;-56
2022/11/06 02:01:04;;;;;;;;;6.00;3.00;;;;;11.71;69.41;101251.75;5059014;28;45289;-56
2022/11/06 02:03:29;;;;;;;;;7.67;6.33;;;;;11.71;69.30;101247.28;5059176;28;45383;-53
2022/11/06 02:05:56;;;;;;;;;7.33;7.33;;;;;11.70;69.18;101253.56;5059039;28;45444;-53
2022/11/06 02:08:23;;;;;;;;;6.00;4.00;;;;;11.64;69.52;101226.66;5058580;28;46328;-52
2022/11/06 02:10:49;;;;;;;;;6.67;6.00;;;;;11.67;69.19;101227.22;5058886;28;45471;-42
2022/11/06 02:13:34;;;;;;;;;5.00;5.00;;;;;11.65;69.76;101226.50;5058960;28;45300;-51
2022/11/06 02:16:29;;;;;;;;;5.67;5.00;;;;;11.67;69.40;101223.69;5059137;28;45366;-50
2022/11/06 02:19:09;;;;;;;;;3.00;3.00;;;;;11.62;69.60;101210.81;5058637;28;45438;-49
2022/11/06 02:22:02;;;;;;;;;10.33;6.00;;;;;11.59;69.38;101208.44;5058574;28;45363;-47
2022/11/06 02:24:50;;;;;;;;;8.33;7.00;;;;;11.61;69.84;101195.81;5057778;28;45356;-53
2022/11/06 02:27:19;;;;;;;;;8.00;6.00;;;;;11.60;69.92;101177.31;5074370;28;45442;-45
2022/11/06 02:29:52;;;;;;;;;4.00;4.00;;;;;11.59;69.78;101173.81;5058593;28;47236;-45
2022/11/06 02:32:25;;;;;;;;;6.00;6.00;;;;;11.53;69.56;101160.19;5058211;28;45380;-43
2022/11/06 02:34:53;;;;;;;;;3.67;3.67;;;;;11.46;69.84;101151.91;5058586;28;45420;-49
2022/11/06 02:37:27;;;;;;;;;7.00;5.00;;;;;11.55;69.85;101169.75;5058670;28;45328;-41
2022/11/06 02:39:56;;;;;;;;;1.00;1.00;;;;;11.48;69.32;101155.31;5058513;28;47076;-42
2022/11/06 02:42:24;;;;;;;;;10.00;6.67;;;;;11.49;69.73;101173.78;5058110;28;45415;-45
2022/11/06 02:44:53;;;;;;;;;0.67;0.67;;;;;11.47;69.36;101169.63;5058418;28;45429;-42
2022/11/06 02:47:22;;;;;;;;;5.33;4.00;;;;;11.51;69.65;101168.34;5058290;28;45449;-44
2022/11/06 02:50:19;;;;;;;;;7.67;6.67;;;;;11.52;69.64;101166.50;5058182;28;45324;-42
2022/11/06 02:52:56;;;;;;;;;5.00;5.00;;;;;11.51;69.36;101167.50;5058142;28;45354;-46
2022/11/06 02:55:27;;;;;;;;;4.00;4.00;;;;;11.47;69.90;101172.28;5058171;28;45506;-53
2022/11/06 02:57:59;;;;;;;;;6.00;3.00;;;;;11.46;69.60;101167.91;5058450;28;45404;-41
2022/11/06 03:00:26;;;;;;;;;6.00;4.67;;;;;11.48;69.71;101160.63;5057821;28;46445;-43
2022/11/06 03:02:54;;;;;;;;;3.00;3.00;;;;;11.45;69.52;101171.56;5058059;28;45453;-47
2022/11/06 03:05:33;;;;;;;;;5.33;3.00;;;;;11.41;69.84;101163.00;5057902;28;45386;-41
2022/11/06 03:08:19;;;;;;;;;8.00;5.00;;;;;11.43;69.57;101173.53;5058109;28;45315;-45
2022/11/06 03:11:18;;;;;;;;;6.00;4.33;;;;;11.44;69.64;101164.56;5057650;28;47068;-48
2022/11/06 03:14:12;;;;;;;;;4.00;3.67;;;;;11.45;69.09;101168.91;5015346;28;45298;-52
2022/11/06 03:16:56;;;;;;;;;7.67;5.33;;;;;11.43;69.62;101165.53;5015623;28;45387;-51
2022/11/06 03:19:41;;;;;;;;;9.00;5.33;;;;;11.40;69.27;101147.19;5016003;28;45814;-45
2022/11/06 03:22:15;;;;;;;;;7.33;3.67;;;;;11.41;69.61;101139.03;5015383;28;46088;-44
2022/11/06 03:24:49;;;;;;;;;3.67;3.67;;;;;11.38;69.29;101138.50;5015293;28;45369;-42
2022/11/06 03:27:20;;;;;;;;;7.00;5.00;;;;;11.35;69.77;101136.13;5015439;28;45319;-44
2022/11/06 03:30:11;;;;;;;;;7.33;3.00;;;;;11.34;69.76;101129.13;5015767;28;45435;-54
2022/11/06 03:32:45;;;;;;;;;12.67;7.33;;;;;11.28;69.62;101132.31;5014275;28;45424;-42
2022/11/06 03:35:23;;;;;;;;;6.00;3.33;;;;;11.31;69.92;101138.22;5014949;28;45441;-55
2022/11/06 03:37:59;;;;;;;;;3.67;3.00;;;;;11.28;69.92;101130.50;5015370;28;45391;-55
2022/11/06 03:40:29;;;;;;;;;12.00;6.00;;;;;11.27;69.90;101120.00;5015383;28;45439;-53
2022/11/06 03:42:58;;;;;;;;;7.00;4.67;;;;;11.23;69.79;101114.94;5015106;28;46424;-54
2022/11/06 03:45:26;;;;;;;;;8.00;5.33;;;;;11.26;69.98;101119.16;5015084;28;45496;-55
2022/11/06 03:48:06;;;;;;;;;6.33;3.33;;;;;11.29;69.84;101118.03;5015398;28;45447;-55
2022/11/06 03:50:55;;;;;;;;;6.67;4.33;;;;;11.30;70.19;101125.88;5043264;28;45289;-54
2022/11/06 03:53:30;;;;;;;;;7.00;5.67;;;;;11.31;69.99;101130.22;5057158;28;46307;-53
2022/11/06 03:56:07;;;;;;;;;5.33;5.33;;;;;11.27;70.06;101128.00;5057289;28;45497;-54
2022/11/06 03:58:38;;;;;;;;;2.00;2.00;;;;;11.30;69.87;101125.88;5057539;28;45446;-44
2022/11/06 04:01:07;;;;;;;;;5.33;3.33;;;;;11.26;70.06;101113.84;5057551;28;45255;-54
2022/11/06 04:03:42;;;;;;;;;5.00;5.00;;;;;11.25;69.68;101093.53;5057106;28;46435;-51
2022/11/06 04:06:24;;;;;;;;;11.00;6.00;;;;;11.22;69.65;101091.97;5057122;28;45426;-44
2022/11/06 04:14:29;;;;;;;;;8.00;5.67;;;;;11.11;69.79;101083.28;5056807;28;45685;-53
2022/11/06 04:17:00;;;;;;;;;5.00;5.00;;;;;11.19;69.84;101088.75;5055840;28;45406;-50
2022/11/06 04:19:25;;;;;;;;;11.00;5.00;;;;;11.19;69.86;101081.59;5057022;28;45322;-52
2022/11/06 04:22:21;;;;;;;;;8.33;6.00;;;;;11.19;69.61;101075.44;5057182;28;45477;-45
2022/11/06 04:27:55;;;;;;;;;7.33;6.00;;;;;11.15;69.89;101074.03;5056853;28;45538;-52
2022/11/06 04:30:20;;;;;;;;;4.67;4.00;;;;;11.17;69.91;101083.56;5057157;28;45268;-54
2022/11/06 04:33:04;;;;;;;;;5.33;3.33;;;;;11.18;69.92;101077.25;5057215;28;45252;-42
2022/11/06 04:35:47;;;;;;;;;6.00;5.00;;;;;11.16;70.05;101070.38;5056855;28;46373;-40
2022/11/06 04:38:38;;;;;;;;;8.33;5.33;;;;;11.16;70.01;101063.22;5056474;28;45207;-52
2022/11/06 04:41:07;;;;;;;;;3.67;2.00;;;;;11.17;69.74;101066.75;5056792;28;45371;-46
2022/11/06 04:43:35;;;;;;;;;8.33;7.00;;;;;11.17;70.04;101066.75;5056969;28;45225;-52
2022/11/06 04:46:03;;;;;;;;;6.33;4.33;;;;;11.12;70.03;101067.16;5056905;28;46380;-50
2022/11/06 04:48:29;;;;;;;;;5.00;5.00;;;;;11.13;69.96;101076.84;5059891;28;45347;-52
2022/11/06 04:51:00;;;;;;;;;6.00;3.33;;;;;11.13;69.77;101073.34;5060340;28;45433;-53
2022/11/06 04:53:28;;;;;;;;;7.33;5.00;;;;;11.12;69.84;101071.66;5060252;28;45482;-54
2022/11/06 04:55:58;;;;;;;;;7.00;5.67;;;;;11.16;70.03;101065.06;5060089;28;46207;-53
2022/11/06 04:58:24;;;;;;;;;1.00;0.00;;;;;11.11;70.18;101054.00;5059984;28;45312;-42
2022/11/06 05:00:50;;;;;;;;;8.00;6.00;;;;;11.12;69.96;101066.31;5060218;28;45527;-53
2022/11/06 05:03:16;;;;;;;;;5.00;3.00;;;;;11.03;70.16;101041.41;5060369;28;45444;-48
2022/11/06 05:05:42;;;;;;;;;5.00;3.00;;;;;11.10;69.78;101061.16;5059765;28;45557;-42
2022/11/06 05:08:13;;;;;;;;;8.33;7.00;;;;;11.09;70.00;101053.31;5059869;28;45365;-42
2022/11/06 05:10:39;;;;;;;;;4.33;4.33;;;;;11.10;69.74;101052.34;5059845;28;45501;-41
2022/11/06 05:13:04;;;;;;;;;7.00;4.33;;;;;11.10;69.86;101050.50;5060225;28;45334;-52
2022/11/06 05:15:29;;;;;;;;;5.33;3.00;;;;;11.12;70.16;101039.69;5059830;28;45308;-55
2022/11/06 05:17:56;;;;;;;;;6.00;5.00;;;;;11.07;69.55;101036.63;5058193;28;45407;-47
2022/11/06 05:20:21;;;;;;;;;4.67;3.00;;;;;11.02;69.80;101036.22;5059310;28;45517;-51
2022/11/06 05:23:01;;;;;;;;;8.33;3.67;;;;;11.02;70.04;101039.72;5059743;28;45402;-43
2022/11/06 05:25:28;;;;;;;;;3.67;3.67;;;;;11.03;70.00;101038.75;5059558;28;47037;-52
2022/11/06 05:27:54;;;;;;;;;6.00;5.67;;;;;10.95;69.59;101027.97;5059642;28;45346;-54
2022/11/06 05:30:20;;;;;;;;;7.00;3.00;;;;;11.02;69.50;101030.91;5059660;28;45418;-41
2022/11/06 05:32:45;;;;;;;;;7.00;5.67;;;;;10.98;69.81;101015.22;5059778;28;45484;-52
2022/11/06 05:35:11;;;;;;;;;3.00;3.00;;;;;10.97;69.70;101010.88;5059553;28;46904;-46
2022/11/06 05:37:36;;;;;;;;;5.67;3.00;;;;;10.97;69.61;101005.56;5059553;28;45390;-54
2022/11/06 05:40:02;;;;;;;;;5.00;5.00;;;;;10.94;69.63;100992.53;5059717;28;45507;-42
2022/11/06 05:42:28;;;;;;;;;4.00;4.00;;;;;10.97;69.41;100994.06;5059740;28;45565;-54
2022/11/06 05:44:53;;;;;;;;;4.33;4.33;;;;;10.99;69.62;101010.72;5059265;28;46410;-53
2022/11/06 05:47:19;;;;;;;;;6.00;5.33;;;;;11.01;69.61;100999.94;5058941;28;45394;-45
2022/11/06 05:49:44;;;;;;;;;10.33;5.33;;;;;10.99;69.65;100989.41;5059520;28;45462;-48
2022/11/06 05:52:09;;;;;;;;;8.33;5.33;;;;;10.98;69.16;100996.56;5059728;28;45593;-46
2022/11/06 05:54:35;;;;;;;;;6.67;3.67;;;;;10.99;69.53;100997.41;5058886;28;45249;-45
2022/11/06 05:57:00;;;;;;;;;5.00;3.00;;;;;10.96;69.29;101005.72;5059287;28;45469;-53
2022/11/06 05:59:25;;;;;;;;;7.33;3.00;;;;;10.98;69.26;100999.22;5059328;28;45355;-51
2022/11/06 06:01:51;;;;;;;;;5.00;5.00;;;;;10.96;69.32;100998.56;5059523;28;45486;-44
2022/11/06 06:04:16;;;;;;;;;4.33;4.33;;;;;10.92;69.39;101004.31;5058979;28;46620;-49
2022/11/06 06:06:42;;;;;;;;;5.33;3.00;;;;;10.91;69.58;100999.94;5058826;28;45466;-45
2022/11/06 06:09:07;;;;;;;;;7.33;4.67;;;;;10.88;69.49;101006.41;5059131;28;45197;-46
2022/11/06 06:11:33;;;;;;;;;5.67;5.67;;;;;10.88;69.42;101002.91;5059441;28;45226;-43
2022/11/06 06:13:59;;;;;;;;;12.67;6.33;;;;;10.88;69.37;101003.75;5059098;28;45966;-49
2022/11/06 06:16:24;;;;;;;;;5.33;4.67;;;;;10.84;69.22;100998.84;5059110;28;45185;-50
2022/11/06 06:18:50;;;;;;;;;8.33;7.00;;;;;10.83;69.61;100997.16;5058909;28;45391;-51
2022/11/06 06:21:15;;;;;;;;;7.67;6.67;;;;;10.85;69.47;100984.56;5059659;28;45350;-45
2022/11/06 06:23:41;;;;;;;;;6.33;4.33;;;;;10.85;69.48;100981.91;5058770;28;45885;-46
2022/11/06 06:26:06;;;;;;;;;7.33;4.00;;;;;10.82;69.36;100979.50;5058608;28;45278;-51
2022/11/06 06:28:32;;;;;;;;;5.67;4.33;;;;;10.71;69.60;100962.72;5058884;28;45486;-46
2022/11/06 06:30:57;;;;;;;;;9.67;7.67;;;;;10.81;69.78;100978.69;5058992;28;45560;-53
2022/11/06 06:33:23;;;;;;;;;7.33;7.00;;;;;10.68;69.86;100951.53;5058768;28;47139;-53
2022/11/06 06:35:48;;;;;;;;;6.33;6.33;;;;;10.77;69.75;100955.16;5059286;28;45333;-52
2022/11/06 06:38:13;;;;;;;;;9.33;3.00;;;;;10.76;69.83;100958.81;5058845;28;45308;-49
2022/11/06 06:40:39;;;;;;;;;6.33;4.00;;;;;10.76;69.98;100953.50;5058973;28;45322;-52
2022/11/06 06:43:04;;;;;;;;;6.00;4.33;;;;;10.70;69.74;100939.78;5058792;28;45371;-59
2022/11/06 06:45:29;;;;;;;;;6.00;4.33;;;;;10.72;69.71;100948.44;5058363;28;45381;-44
2022/11/06 06:48:00;;;;;;;;;8.00;6.33;;;;;10.73;69.78;100942.13;5058172;28;45285;-49
2022/11/06 06:50:26;;;;;;;;;8.00;5.67;;;;;10.72;69.87;100936.97;5058524;28;45406;-51
2022/11/06 06:52:55;;;;;;;;;3.00;3.00;;;;;10.73;69.62;100938.63;5058121;28;46146;-48
2022/11/06 06:55:20;;;;;;;;;10.67;5.00;;;;;10.71;69.98;100937.94;5058106;28;45292;-53
2022/11/06 06:57:45;;;;;;;;;6.00;6.00;;;;;10.72;69.79;100939.63;5058128;28;45335;-55
2022/11/06 07:00:11;;;;;;;;;5.67;5.67;;;;;10.71;69.93;100933.47;5058548;28;45220;-56
2022/11/06 07:02:36;;;;;;;;;1.00;1.00;;;;;10.66;69.90;100908.25;5057737;28;46035;-54
2022/11/06 07:05:02;;;;;;;;;7.00;5.67;;;;;10.68;70.20;100911.63;5058228;28;45422;-54
2022/11/06 07:07:27;;;;;;;;;5.00;3.00;;;;;10.61;70.00;100900.69;5058095;28;45571;-54
2022/11/06 07:09:52;;;;;;;;;5.00;2.33;;;;;10.67;70.06;100905.47;5057694;28;45468;-54
2022/11/06 07:12:18;;;;;;;;;5.00;5.00;;;;;10.63;70.10;100908.56;5057945;28;45352;-56
2022/11/06 07:14:43;;;;;;;;;4.67;4.67;;;;;10.61;70.04;100918.50;5057862;28;45288;-57
2022/11/06 07:17:08;;;;;;;;;2.00;2.00;;;;;10.62;70.22;100928.13;5058171;28;45254;-55
2022/11/06 07:19:34;;;;;;;;;6.00;3.00;;;;;10.62;70.01;100933.47;5058122;28;45174;-51
2022/11/06 07:21:59;;;;;;;;;6.67;4.67;;;;;10.65;70.01;100917.22;5057798;28;45696;-51
2022/11/06 07:24:24;;;;;;;;;5.67;4.33;;;;;10.60;70.12;100899.03;5057733;28;45383;-55
2022/11/06 07:26:50;;;;;;;;;8.67;2.67;;;;;10.65;69.95;100902.09;5057802;28;45787;-55
2022/11/06 07:29:15;;;;;;;;;8.33;5.00;;;;;10.60;70.10;100915.00;5058373;28;45332;-48
2022/11/06 07:31:41;;;;;;;;;4.67;1.33;;;;;10.65;69.88;100914.56;5057709;28;46177;-52
2022/11/06 07:34:06;;;;;;;;;6.67;3.00;;;;;10.65;69.60;100917.22;5057636;28;45445;-54
2022/11/06 07:36:34;;;;;;;;;6.00;3.00;;;;;10.65;69.70;100912.72;5057675;28;45475;-52
2022/11/06 07:38:59;;;;;;;;;5.67;3.00;;;;;10.63;69.88;100909.41;5057789;28;45398;-56
2022/11/06 07:41:24;;;;;;;;;7.33;4.33;;;;;10.63;69.58;100898.75;5057311;28;46088;-55
2022/11/06 07:43:50;;;;;;;;;7.33;2.67;;;;;10.59;69.62;100878.75;5057396;28;45411;-54
2022/11/06 07:46:15;;;;;;;;;4.33;4.33;;;;;10.63;69.66;100881.97;5057539;28;45242;-54
2022/11/06 07:48:40;;;;;;;;;3.00;3.00;;;;;10.64;69.80;100889.78;5057739;28;45411;-56
2022/11/06 07:51:08;;;;;;;;;6.67;5.33;;;;;10.67;69.31;100899.31;5057275;28;46229;-51
2022/11/06 07:53:34;;;;;;;;;2.00;2.00;;;;;10.66;69.42;100900.28;5057461;28;45339;-55
2022/11/06 07:55:59;;;;;;;;;3.00;3.00;;;;;10.69;69.30;100898.16;5056036;28;45450;-56
2022/11/06 07:58:25;;;;;;;;;6.00;6.00;;;;;10.68;69.40;100890.34;5057615;28;45525;-55
2022/11/06 08:00:53;;;;;;;;;7.00;5.00;;;;;10.69;69.31;100898.16;5057185;28;45327;-51
2022/11/06 08:03:19;;;;;;;;;7.00;3.00;;;;;10.60;69.32;100892.88;5072854;27;45426;-53
2022/11/06 08:05:45;;;;;;;;;5.00;3.00;;;;;10.63;69.43;100896.09;5057171;28;45354;-53
2022/11/06 08:08:11;;;;;;;;;10.00;5.67;;;;;10.62;69.51;100891.75;5057276;28;45452;-54
2022/11/06 08:10:39;;;;;;;;;7.00;2.67;;;;;10.63;69.28;100887.28;5056791;28;46578;-52
2022/11/06 08:13:09;;;;;;;;;4.33;4.33;;;;;10.59;69.29;100891.22;5057047;28;45393;-54
2022/11/06 08:15:37;;;;;;;;;5.33;5.00;;;;;10.62;69.55;100897.09;5057058;28;45382;-50
2022/11/06 08:18:03;;;;;;;;;7.67;5.00;;;;;10.67;69.21;100886.84;5057368;28;45408;-54
2022/11/06 08:20:28;;;;;;;;;7.00;7.00;;;;;10.72;69.36;100881.09;5055467;28;48425;-49
2022/11/06 08:22:59;;;;;;;;;5.67;3.00;;;;;10.73;68.97;100877.44;5056934;28;45385;-55
2022/11/06 08:25:24;;;;;;;;;9.67;7.00;;;;;10.74;68.84;100871.13;5057219;28;45452;-54
2022/11/06 08:27:49;;;;;;;;;3.33;3.00;;;;;10.70;69.06;100849.31;5057285;28;45358;-54
2022/11/06 08:30:15;;;;;;;;;6.00;4.33;;;;;10.84;68.88;100874.63;5055475;28;46009;-51
2022/11/06 08:32:40;;;;;;;;;7.33;2.00;;;;;10.87;68.79;100860.16;5056981;28;45296;-54
2022/11/06 08:35:06;;;;;;;;;4.33;4.33;;;;;10.87;68.77;100857.50;5057144;28;45355;-52
2022/11/06 08:37:31;;;;;;;;;6.00;6.00;;;;;10.88;69.10;100857.38;5057174;28;45398;-54
2022/11/06 08:39:57;;;;;;;;;6.67;6.00;;;;;10.84;69.30;100852.50;5056590;28;46588;-54
2022/11/06 08:42:22;;;;;;;;;4.00;4.00;;;;;10.87;69.35;100853.03;5056660;28;45440;-54
2022/11/06 08:44:47;;;;;;;;;6.33;6.33;;;;;10.88;69.72;100856.53;5056926;28;45294;-52
2022/11/06 08:47:13;;;;;;;;;6.67;5.33;;;;;10.89;69.53;100861.69;5056659;28;45291;-44
2022/11/06 08:49:38;;;;;;;;;3.00;3.00;;;;;10.93;69.82;100868.41;5056686;28;47095;-44
2022/11/06 08:52:03;;;;;;;;;6.33;6.00;;;;;10.91;69.60;100867.72;5056716;28;45227;-47
2022/11/06 08:54:29;;;;;;;;;7.33;6.00;;;;;10.89;70.58;100859.03;5056759;28;45250;-45
2022/11/06 08:56:56;;;;;;;;;7.00;4.33;;;;;10.92;70.28;100877.38;5057179;28;45536;-41
2022/11/06 08:59:21;;;;;;;;;4.00;4.00;;;;;10.96;70.10;100880.59;5057297;28;46089;-43
2022/11/06 09:01:47;;;;;;;;;6.00;4.33;;;;;10.94;70.49;100874.56;5057280;28;45304;-51
2022/11/06 09:04:12;;;;;;;;;7.00;5.33;;;;;10.90;70.51;100874.00;5057375;28;45319;-48
2022/11/06 09:06:37;;;;;;;;;6.33;3.00;;;;;10.90;71.08;100866.03;5057628;28;45343;-47
2022/11/06 09:09:03;;;;;;;;;6.67;5.00;;;;;10.90;71.66;100862.53;5056560;28;46010;-42
2022/11/06 09:11:28;;;;;;;;;3.00;3.00;;;;;10.87;71.23;100858.38;5056403;28;45432;-52
2022/11/06 09:13:53;;;;;;;;;4.33;4.33;;;;;10.85;71.97;100857.66;5055256;28;45421;-53
2022/11/06 09:16:19;;;;;;;;;6.00;5.67;;;;;10.83;71.70;100856.09;5056884;28;45413;-44
2022/11/06 09:18:44;;;;;;;;;6.00;3.67;;;;;10.81;71.86;100850.09;5056165;28;45382;-50
2022/11/06 09:21:09;;;;;;;;;5.00;5.00;;;;;10.68;72.31;100829.16;5056614;28;45391;-54
2022/11/06 09:23:35;;;;;;;;;10.33;5.00;;;;;10.67;72.34;100833.63;5056658;28;45316;-49
2022/11/06 09:26:00;;;;;;;;;11.00;5.67;;;;;10.68;73.14;100819.34;5056460;28;45454;-44
2022/11/06 09:28:26;;;;;;;;;4.67;4.67;;;;;10.70;72.83;100811.19;5056107;28;45546;-47
2022/11/06 09:30:51;;;;;;;;;3.67;3.00;;;;;10.70;73.24;100804.09;5056238;28;45409;-44
2022/11/06 09:33:16;;;;;;;;;6.67;5.33;;;;;10.69;72.75;100791.75;5058529;28;45227;-42
2022/11/06 09:35:42;;;;;;;;;5.00;5.00;;;;;10.64;73.10;100788.69;5059885;28;45437;-42
2022/11/06 09:38:11;;;;;;;;;8.33;6.33;;;;;10.63;73.23;100792.34;5059717;28;46226;-53
2022/11/06 09:40:41;;;;;;;;;7.00;6.00;;;;;10.57;73.64;100774.28;5059492;28;45323;-51
2022/11/06 09:43:14;;;;;;;;;6.00;5.00;;;;;10.61;73.50;100773.00;5059639;28;45390;-47
2022/11/06 09:45:40;;;;;;;;;5.00;5.00;;;;;10.61;74.03;100781.00;5059589;28;45498;-43
2022/11/06 09:48:08;;;;;;;;;5.00;5.00;;;;;10.67;74.33;100771.63;5059103;28;46184;-52
2022/11/06 09:50:39;;;;;;;;;5.33;5.33;;;;;10.65;73.98;100774.41;5059231;28;45255;-45
2022/11/06 09:53:15;;;;;;;;;7.33;7.00;;;;;10.56;74.23;100767.28;5059360;28;45293;-53
2022/11/06 09:55:43;;;;;;;;;6.33;6.00;;;;;10.52;74.88;100767.75;5059357;28;45589;-53
2022/11/06 09:58:24;;;;;;;;;9.33;6.67;;;;;10.51;75.51;100771.38;5058999;28;46321;-45
2022/11/06 10:00:53;;;;;;;;;7.00;6.67;;;;;10.51;74.89;100766.91;5059062;28;45371;-53
2022/11/06 10:03:28;;;;;;;;;8.00;8.00;;;;;10.54;75.66;100765.78;5059108;28;45359;-44
2022/11/06 10:05:53;;;;;;;;;8.00;7.00;;;;;10.48;75.55;100754.72;5059298;28;45335;-43
2022/11/06 10:08:22;;;;;;;;;9.33;7.00;;;;;10.52;75.83;100763.25;5058885;28;46052;-42
2022/11/06 10:11:16;;;;;;;;;8.00;6.33;;;;;10.48;75.05;100764.53;5058930;28;45422;-50
2022/11/06 10:14:07;;;;;;;;;10.67;7.00;;;;;10.57;76.35;100768.13;5059191;28;45446;-52
2022/11/06 10:16:53;;;;;;;;;8.67;7.00;;;;;10.65;75.43;100774.41;5059230;28;45369;-44
2022/11/06 10:19:54;;;;;;;;;10.67;6.33;;;;;10.65;75.65;100749.63;5058595;28;46344;-44
2022/11/06 10:22:32;;;;;;;;;11.67;7.00;;;;;10.66;75.57;100757.47;5058688;28;45343;-50
2022/11/06 10:25:27;;;;;;;;;8.00;6.00;;;;;10.65;75.43;100752.28;5058628;28;45284;-55
2022/11/06 10:28:03;;;;;;;;;11.00;8.33;;;;;10.64;75.26;100750.63;4976886;28;45488;-57
2022/11/06 10:30:55;;;;;;;;;11.33;9.33;;;;;10.62;74.65;100752.56;4976891;28;47382;-56
2022/11/06 10:33:33;;;;;;;;;16.00;12.33;;;;;10.62;75.41;100753.44;4976817;28;45314;-54
2022/11/06 10:36:06;;;;;;;;;7.33;6.33;;;;;10.60;75.36;100755.38;4977385;28;45358;-55
2022/11/06 10:38:37;;;;;;;;;10.00;7.00;;;;;10.62;75.25;100764.06;4977122;28;45547;-59
2022/11/06 10:41:03;;;;;;;;;10.00;7.67;;;;;10.55;75.86;100752.31;4976742;28;46292;-56
2022/11/06 10:43:43;;;;;;;;;10.67;8.67;;;;;10.63;75.91;100765.75;4976130;28;45353;-57
2022/11/06 10:46:21;;;;;;;;;10.33;6.67;;;;;10.64;75.42;100778.06;4976938;28;45478;-54
2022/11/06 10:48:56;;;;;;;;;10.33;7.33;;;;;10.65;75.30;100754.94;4977132;28;45515;-48
2022/11/06 10:52:03;;;;;;;;;16.00;10.00;;;;;10.68;75.62;100757.31;4976659;28;45600;-56
2022/11/06 10:55:08;;;;;;;;;12.33;10.00;;;;;10.69;75.55;100758.97;4976666;28;45465;-56
2022/11/06 10:57:45;;;;;;;;;9.67;7.00;;;;;10.69;75.27;100753.66;4937710;28;45432;-56
2022/11/06 11:00:14;;;;;;;;;10.33;8.67;;;;;10.68;76.28;100733.38;4937891;28;45468;-52
2022/11/06 11:02:45;;;;;;;;;15.33;10.00;;;;;10.70;76.82;100734.91;4937534;28;45438;-57
2022/11/06 11:05:15;;;;;;;;;12.00;11.00;;;;;10.64;76.00;100734.66;4971150;28;45400;-57
2022/11/06 11:07:43;;;;;;;;;9.67;8.33;;;;;10.58;76.30;100720.13;4976309;28;45496;-54
2022/11/06 11:10:31;;;;;;;;;12.33;9.67;;;;;10.56;76.91;100715.94;4976559;28;45440;-57
2022/11/06 11:12:59;;;;;;;;;11.00;9.00;;;;;10.60;77.25;100714.66;4975920;28;46201;-56
2022/11/06 11:15:27;;;;;;;;;12.00;10.00;;;;;10.63;76.51;100714.34;4976351;28;45250;-56
2022/11/06 11:18:10;;;;;;;;;13.00;9.67;;;;;10.65;76.28;100721.19;4976261;28;45550;-57
2022/11/06 11:20:41;;;;;;;;;10.67;10.33;;;;;10.64;76.75;100721.34;4976501;28;45263;-57
2022/11/06 11:23:06;;;;;;;;;11.33;8.33;;;;;10.65;76.47;100720.34;4975737;28;47207;-56
2022/11/06 11:25:32;;;;;;;;;12.00;10.33;;;;;10.65;76.43;100715.03;4976247;28;45562;-55
2022/11/06 11:27:58;;;;;;;;;10.67;8.33;;;;;10.65;76.28;100713.22;4976081;28;45786;-55
2022/11/06 11:30:25;;;;;;;;;11.67;10.00;;;;;10.62;76.66;100715.31;4976117;28;45477;-55
2022/11/06 11:32:52;;;;;;;;;10.67;10.00;;;;;10.63;77.44;100709.03;5009594;28;46234;-55
2022/11/06 11:35:28;;;;;;;;;14.33;7.00;;;;;10.60;76.71;100704.84;5057255;28;45399;-55
2022/11/06 11:38:11;;;;;;;;;14.33;10.67;;;;;10.56;77.46;100692.81;5057724;28;45244;-57
2022/11/06 11:40:39;;;;;;;;;10.00;10.00;;;;;10.55;77.20;100691.16;5057830;28;45394;-55
2022/11/06 11:43:23;;;;;;;;;14.00;11.33;;;;;10.56;77.91;100668.88;5057299;28;47238;-55
2022/11/06 11:46:19;;;;;;;;;10.00;8.00;;;;;10.52;77.78;100648.06;5057191;28;45370;-55